Time;durP1;ratioP1;P1;durP2;ratioP2;P2;SDS_P1;SDS_P2;PMS_P1;PMS_P2;Temp;Humidity;BMP_temperature;BMP_pressure;BME280_temperature;BME280_humidity;BME280_pressure;Samples;Min_cycle;Max_cycle;Signal;HPM_P1;HPM_P2
2022/06/09 00:00:10;;;;;;;21.63;12.32;;;;;;;13.49;100.00;100606.63;1051756;28;20301;-82
2022/06/09 00:00:44;;;;;;;21.70;12.23;;;;;;;13.52;100.00;100608.81;1048768;28;20305;-82
2022/06/09 00:01:17;;;;;;;21.25;13.27;;;;;;;13.54;100.00;100618.22;1049124;28;20294;-82
2022/06/09 00:01:53;;;;;;;27.70;13.02;;;;;;;13.49;100.00;100609.28;1053948;28;20304;-82
2022/06/09 00:02:24;;;;;;;25.80;13.82;;;;;;;13.46;100.00;100612.47;1053594;28;20293;-81
2022/06/09 00:02:59;;;;;;;26.02;14.90;;;;;;;13.48;100.00;100607.69;1057357;27;20823;-82
2022/06/09 00:03:38;;;;;;;27.95;13.00;;;;;;;13.51;100.00;100613.34;1058223;28;20307;-82
2022/06/09 00:04:20;;;;;;;24.38;11.63;;;;;;;13.43;100.00;100616.44;1051599;28;20302;-82
2022/06/09 00:04:51;;;;;;;27.35;13.10;;;;;;;13.51;100.00;100620.56;1051529;28;20309;-82
2022/06/09 00:05:24;;;;;;;29.10;12.32;;;;;;;13.50;100.00;100609.06;1053064;28;20289;-82
2022/06/09 00:05:55;;;;;;;29.65;12.55;;;;;;;13.44;100.00;100607.34;1051629;28;20285;-81
2022/06/09 00:06:32;;;;;;;22.98;12.13;;;;;;;13.48;100.00;100615.69;1049619;28;20302;-81
2022/06/09 00:07:16;;;;;;;22.55;11.90;;;;;;;13.50;100.00;100613.59;1053008;28;20301;-82
2022/06/09 00:07:50;;;;;;;20.65;11.88;;;;;;;13.48;100.00;100610.34;1054850;28;20658;-82
2022/06/09 00:08:23;;;;;;;23.67;12.95;;;;;;;13.49;100.00;100611.97;1050537;28;20290;-82
2022/06/09 00:09:00;;;;;;;20.60;10.80;;;;;;;13.58;100.00;100615.88;1046160;28;20298;-82
2022/06/09 00:09:35;;;;;;;23.90;12.00;;;;;;;13.51;100.00;100612.53;1049843;28;20440;-82
2022/06/09 00:10:13;;;;;;;25.35;12.20;;;;;;;13.51;100.00;100615.22;1054669;28;20293;-82
2022/06/09 00:10:49;;;;;;;23.08;11.77;;;;;;;13.49;100.00;100612.78;1054762;28;20301;-82
2022/06/09 00:11:24;;;;;;;21.15;10.85;;;;;;;13.50;100.00;100613.59;1053950;28;20677;-82
2022/06/09 00:11:56;;;;;;;24.20;12.00;;;;;;;13.45;100.00;100610.84;1043572;28;20299;-81
2022/06/09 00:12:27;;;;;;;18.65;10.35;;;;;;;13.48;100.00;100607.69;1043406;28;20370;-82
2022/06/09 00:12:59;;;;;;;26.80;11.35;;;;;;;13.30;100.00;100614.84;1043160;28;20781;-81
2022/06/09 00:13:31;;;;;;;20.77;10.77;;;;;;;13.35;100.00;100611.44;1046389;28;20298;-82
2022/06/09 00:14:04;;;;;;;22.48;11.85;;;;;;;13.37;100.00;100613.88;1047744;28;20306;-82
2022/06/09 00:14:36;;;;;;;21.45;10.45;;;;;;;13.34;100.00;100619.72;1048115;28;20307;-81
2022/06/09 00:15:10;;;;;;;18.92;10.95;;;;;;;13.39;100.00;100611.78;1048740;28;20336;-80
2022/06/09 00:15:41;;;;;;;18.52;10.27;;;;;;;13.39;100.00;100617.94;1046945;28;20800;-80
2022/06/09 00:16:14;;;;;;;19.50;10.70;;;;;;;13.39;100.00;100617.13;1052830;28;20705;-80
2022/06/09 00:16:48;;;;;;;30.63;12.13;;;;;;;13.30;100.00;100614.84;1048654;28;20456;-80
2022/06/09 00:17:20;;;;;;;28.95;10.88;;;;;;;13.30;100.00;100614.84;1051559;28;20788;-80
2022/06/09 00:17:52;;;;;;;21.00;10.73;;;;;;;13.34;100.00;100625.06;1051209;28;20298;-80
2022/06/09 00:18:24;;;;;;;26.73;11.63;;;;;;;13.34;100.00;100620.53;1053459;28;20304;-80
2022/06/09 00:18:55;;;;;;;23.10;12.25;;;;;;;13.28;100.00;100616.94;1056076;28;20834;-80
2022/06/09 00:19:30;;;;;;;23.00;11.63;;;;;;;13.27;100.00;100622.53;1058967;28;20281;-80
2022/06/09 00:20:03;;;;;;;20.77;10.60;;;;;;;13.22;100.00;100619.78;1055917;28;20289;-80
2022/06/09 00:20:35;;;;;;;25.83;11.27;;;;;;;13.23;100.00;100619.53;1056910;27;20293;-80
2022/06/09 00:21:07;;;;;;;21.75;11.52;;;;;;;13.27;100.00;100622.53;1056844;28;20301;-80
2022/06/09 00:21:39;;;;;;;24.48;11.43;;;;;;;13.30;100.00;100620.19;1053598;28;20321;-80
2022/06/09 00:22:10;;;;;;;19.95;11.40;;;;;;;13.28;100.00;100626.84;1052413;28;20308;-80
2022/06/09 00:22:42;;;;;;;22.23;12.38;;;;;;;13.22;100.00;100625.94;1048958;28;20290;-80
2022/06/09 00:23:16;;;;;;;24.13;11.60;;;;;;;13.24;100.00;100626.50;1048835;28;20302;-81
2022/06/09 00:23:48;;;;;;;23.60;11.88;;;;;;;13.20;100.00;100625.38;1054123;27;20294;-81
2022/06/09 00:24:21;;;;;;;25.15;10.98;;;;;;;13.16;100.00;100624.19;1055730;28;20356;-81
2022/06/09 00:24:53;;;;;;;22.42;11.82;;;;;;;13.19;100.00;100625.59;1045405;28;20673;-82
2022/06/09 00:25:24;;;;;;;21.77;11.60;;;;;;;13.15;100.00;100627.91;1046911;28;20381;-82
2022/06/09 00:25:56;;;;;;;20.08;11.32;;;;;;;13.11;100.00;100625.94;1052386;28;20376;-81
2022/06/09 00:26:29;;;;;;;19.25;11.85;;;;;;;13.14;100.00;100628.94;1049666;28;20295;-81
2022/06/09 00:27:00;;;;;;;22.73;12.68;;;;;;;13.13;100.00;100630.00;1049129;28;20679;-81
2022/06/09 00:27:32;;;;;;;19.33;11.23;;;;;;;13.13;100.00;100627.31;1049720;28;20306;-81
2022/06/09 00:28:04;;;;;;;20.98;12.07;;;;;;;13.18;100.00;100626.66;1057098;27;20333;-81
2022/06/09 00:28:36;;;;;;;23.48;13.65;;;;;;;13.23;100.00;100624.88;1053121;28;20805;-81
2022/06/09 00:29:08;;;;;;;24.17;12.15;;;;;;;13.21;100.00;100632.34;1052276;28;20317;-81
2022/06/09 00:29:40;;;;;;;29.33;13.02;;;;;;;13.20;100.00;100624.56;1047530;28;20314;-81
2022/06/09 00:30:13;;;;;;;22.77;12.13;;;;;;;13.08;100.00;100631.75;1053435;28;20281;-81
2022/06/09 00:30:46;;;;;;;25.48;11.95;;;;;;;13.11;100.00;100626.75;1053079;28;20294;-80
2022/06/09 00:31:17;;;;;;;22.30;12.52;;;;;;;13.06;100.00;100629.31;1057573;27;20387;-80
2022/06/09 00:31:49;;;;;;;22.67;12.98;;;;;;;13.08;100.00;100637.91;1056756;28;20300;-80
2022/06/09 00:32:21;;;;;;;21.05;12.52;;;;;;;13.10;100.00;100624.31;1053325;28;20675;-80
2022/06/09 00:32:52;;;;;;;31.60;13.07;;;;;;;13.07;100.00;100619.44;1052995;28;20305;-80
2022/06/09 00:33:24;;;;;;;22.02;13.13;;;;;;;13.07;100.00;100625.59;1057049;28;20293;-80
2022/06/09 00:33:56;;;;;;;27.30;14.18;;;;;;;13.04;100.00;100626.06;1062848;27;20452;-81
2022/06/09 00:34:28;;;;;;;26.90;14.10;;;;;;;13.00;100.00;100638.31;1065615;27;20292;-80
2022/06/09 00:34:59;;;;;;;25.45;13.07;;;;;;;12.99;100.00;100623.31;1065584;27;20825;-80
2022/06/09 00:35:31;;;;;;;24.88;14.48;;;;;;;13.05;100.00;100622.34;1059509;27;20288;-80
2022/06/09 00:36:03;;;;;;;22.55;13.60;;;;;;;13.03;100.00;100629.00;1055063;28;20308;-81
2022/06/09 00:36:35;;;;;;;20.98;13.35;;;;;;;13.03;100.00;100624.44;1056635;28;20913;-82
2022/06/09 00:37:07;;;;;;;19.13;13.27;;;;;;;13.06;100.00;100629.31;1058140;27;20296;-82
2022/06/09 00:37:38;;;;;;;21.23;14.18;;;;;;;13.08;100.00;100623.72;1056443;28;20301;-81
2022/06/09 00:38:13;;;;;;;26.40;14.25;;;;;;;13.03;100.00;100623.66;1050410;28;20718;-81
2022/06/09 00:38:46;;;;;;;23.70;13.25;;;;;;;12.98;100.00;100624.34;1052404;28;20290;-81
2022/06/09 00:39:17;;;;;;;22.33;13.55;;;;;;;12.99;100.00;100626.78;1044791;28;20325;-81
2022/06/09 00:39:49;;;;;;;26.70;14.52;;;;;;;13.02;100.00;100630.03;1048381;28;20290;-81
2022/06/09 00:40:21;;;;;;;26.80;14.43;;;;;;;13.04;100.00;100622.59;1053292;28;20294;-81
2022/06/09 00:40:57;;;;;;;22.02;13.27;;;;;;;13.03;100.00;100629.81;1050346;28;20297;-81
2022/06/09 00:41:29;;;;;;;22.15;12.80;;;;;;;13.00;100.00;100624.94;1053484;28;20578;-81
2022/06/09 00:42:01;;;;;;;27.92;13.80;;;;;;;12.87;100.00;100626.00;1053977;28;20749;-81
2022/06/09 00:42:34;;;;;;;28.02;13.93;;;;;;;12.95;100.00;100627.50;1053750;28;20340;-81
2022/06/09 00:43:05;;;;;;;24.55;13.15;;;;;;;12.99;100.00;100634.00;1049126;28;20294;-81
2022/06/09 00:43:41;;;;;;;31.02;14.18;;;;;;;12.97;100.00;100623.53;1053242;28;20699;-82
2022/06/09 00:44:24;;;;;;;17.00;12.18;;;;;;;12.92;100.00;100631.47;1057709;27;20289;-82
2022/06/09 00:44:56;;;;;;;17.67;13.75;;;;;;;12.91;100.00;100631.72;1059291;27;20293;-82
2022/06/09 00:45:29;;;;;;;22.10;14.48;;;;;;;12.92;100.00;100625.31;1056428;28;20312;-82
2022/06/09 00:46:15;;;;;;;25.25;14.77;;;;;;;12.93;100.00;100624.25;1047807;28;20337;-82
2022/06/09 00:46:55;;;;;;;24.33;13.45;;;;;;;12.91;100.00;100615.66;1049150;28;20299;-81
2022/06/09 00:47:29;;;;;;;22.95;13.20;;;;;;;12.88;100.00;100629.50;1051803;28;20302;-81
2022/06/09 00:48:21;;;;;;;25.02;14.32;;;;;;;12.92;100.00;100618.09;1055720;28;20306;-81
2022/06/09 00:49:00;;;;;;;21.73;13.13;;;;;;;12.93;100.00;100625.06;1052384;28;20440;-81
2022/06/09 00:49:36;;;;;;;26.85;13.60;;;;;;;13.00;100.00;100624.94;1053347;28;20298;-82
2022/06/09 00:50:14;;;;;;;21.98;13.80;;;;;;;12.99;100.00;100623.31;1050220;28;20867;-81
2022/06/09 00:50:48;;;;;;;26.15;13.35;;;;;;;12.87;100.00;100619.84;1049210;28;20807;-81
2022/06/09 00:51:33;;;;;;;19.90;12.95;;;;;;;12.85;100.00;100619.25;1048360;28;20287;-81
2022/06/09 00:52:07;;;;;;;22.52;14.68;;;;;;;12.78;100.00;100613.25;1051116;28;20286;-81
2022/06/09 00:52:51;;;;;;;21.27;13.60;;;;;;;12.89;100.00;100623.13;1055637;28;20317;-81
2022/06/09 00:53:27;;;;;;;28.75;13.82;;;;;;;12.94;100.00;100631.22;1056343;28;20305;-81
2022/06/09 00:54:14;;;;;;;27.17;14.10;;;;;;;12.98;100.00;100635.06;1051381;28;20298;-81
2022/06/09 00:54:49;;;;;;;25.45;14.52;;;;;;;12.94;100.00;100631.22;1050858;28;20313;-81
2022/06/09 00:55:23;;;;;;;20.38;14.85;;;;;;;12.95;100.00;100627.50;1047392;28;20298;-81
2022/06/09 00:55:55;;;;;;;24.15;14.00;;;;;;;12.96;100.00;100634.47;1050615;28;20426;-81
2022/06/09 00:56:27;;;;;;;23.42;16.77;;;;;;;12.95;100.00;100632.84;1049431;28;20295;-82
2022/06/09 00:57:19;;;;;;;26.25;15.57;;;;;;;12.99;100.00;100639.34;1050201;28;20306;-82
2022/06/09 00:58:05;;;;;;;24.50;13.32;;;;;;;12.97;100.00;100626.22;1055712;28;20368;-82
2022/06/09 00:58:38;;;;;;;26.45;14.23;;;;;;;13.01;100.00;100631.91;1061366;27;20288;-82
2022/06/09 00:59:12;;;;;;;29.27;14.65;;;;;;;13.00;100.00;100635.63;1057065;27;20289;-81
2022/06/09 00:59:47;;;;;;;19.13;14.85;;;;;;;12.97;100.00;100636.09;1055181;28;20293;-81
2022/06/09 01:00:22;;;;;;;21.17;14.45;;;;;;;12.94;100.00;100636.59;1052493;28;20661;-81
2022/06/09 01:00:59;;;;;;;19.95;14.52;;;;;;;12.92;100.00;100639.50;1054155;28;20664;-81
2022/06/09 01:01:32;;;;;;;21.05;14.13;;;;;;;12.89;100.00;100636.47;1056644;28;20364;-81
2022/06/09 01:02:07;;;;;;;22.17;14.25;;;;;;;12.92;100.00;100638.69;1052082;28;20310;-81
2022/06/09 01:02:40;;;;;;;21.55;14.40;;;;;;;12.94;100.00;100632.03;1049782;28;20299;-81
2022/06/09 01:03:15;;;;;;;20.45;15.23;;;;;;;12.98;100.00;100637.72;1049654;28;20381;-81
2022/06/09 01:03:52;;;;;;;23.45;16.95;;;;;;;12.97;100.00;100638.78;1049705;28;20306;-81
2022/06/09 01:04:24;;;;;;;25.02;15.75;;;;;;;12.94;100.00;100640.06;1051118;28;20313;-82
2022/06/09 01:04:56;;;;;;;25.45;15.57;;;;;;;12.92;100.00;100633.34;1047306;28;20299;-82
2022/06/09 01:05:31;;;;;;;20.48;16.10;;;;;;;12.96;100.00;100634.47;1049507;28;20297;-82
2022/06/09 01:06:11;;;;;;;28.73;15.88;;;;;;;13.00;100.00;100640.97;1049816;28;20383;-82
2022/06/09 01:06:48;;;;;;;26.88;14.77;;;;;;;13.03;100.00;100640.50;1052338;28;20294;-82
2022/06/09 01:07:26;;;;;;;26.55;14.40;;;;;;;12.97;100.00;100642.25;1052437;28;20294;-81
2022/06/09 01:08:02;;;;;;;22.98;14.38;;;;;;;13.04;100.00;100646.66;1055318;28;20858;-81
2022/06/09 01:08:35;;;;;;;29.92;15.02;;;;;;;13.05;100.00;100645.59;1055077;28;20308;-80
2022/06/09 01:09:14;;;;;;;25.20;16.25;;;;;;;13.08;100.00;100651.28;1054416;28;20302;-81
2022/06/09 01:09:45;;;;;;;28.17;17.20;;;;;;;13.06;100.00;100645.38;1058432;27;20678;-80
2022/06/09 01:10:17;;;;;;;29.23;16.30;;;;;;;13.08;100.00;100648.63;1052360;28;20294;-80
2022/06/09 01:10:48;;;;;;;28.80;16.02;;;;;;;13.11;100.00;100653.47;1051018;28;20301;-80
2022/06/09 01:11:21;;;;;;;24.45;15.23;;;;;;;13.07;100.00;100649.66;1056981;27;20305;-80
2022/06/09 01:11:54;;;;;;;29.80;15.63;;;;;;;13.11;100.00;100652.69;1060637;27;20605;-80
2022/06/09 01:12:33;;;;;;;32.22;17.00;;;;;;;13.08;100.00;100647.81;1053304;28;20305;-81
2022/06/09 01:13:08;;;;;;;26.75;15.75;;;;;;;12.97;100.00;100652.16;1050618;28;20298;-81
2022/06/09 01:13:41;;;;;;;27.92;15.32;;;;;;;13.04;100.00;100646.66;1051837;28;20370;-81
2022/06/09 01:14:13;;;;;;;22.10;15.02;;;;;;;13.09;100.00;100649.44;1057793;27;20302;-80
2022/06/09 01:14:45;;;;;;;23.33;16.08;;;;;;;13.09;100.00;100647.56;1062312;27;20840;-81
2022/06/09 01:15:20;;;;;;;26.30;15.70;;;;;;;13.10;100.00;100653.72;1056744;28;20302;-81
2022/06/09 01:16:29;;;;;;;21.92;15.25;;;;;;;13.06;100.00;100652.56;1051725;28;20313;-81
2022/06/09 01:17:17;;;;;;;22.45;14.48;;;;;;;13.07;100.00;100655.00;1037113;28;20316;-81
2022/06/09 01:18:11;;;;;;;26.17;15.98;;;;;;;13.11;100.00;100658.03;1047065;27;20307;-82
2022/06/09 01:18:51;;;;;;;30.90;14.98;;;;;;;13.07;100.00;100657.69;1062631;27;20346;-81
2022/06/09 01:19:48;;;;;;;26.50;16.38;;;;;;;13.08;100.00;100661.16;1058711;27;20376;-82
2022/06/09 01:20:32;;;;;;;22.50;13.43;;;;;;;13.05;100.00;100667.81;1052085;27;20051;-81
2022/06/09 01:21:09;;;;;;;27.17;14.15;;;;;;;13.02;100.00;100660.25;1060931;27;20316;-81
2022/06/09 01:22:14;;;;;;;26.50;15.68;;;;;;;13.04;100.00;100663.50;1058758;27;20301;-81
2022/06/09 01:22:46;;;;;;;23.55;13.93;;;;;;;13.05;100.00;100664.31;1055958;28;20293;-82
2022/06/09 01:23:38;;;;;;;30.90;15.93;;;;;;;13.08;100.00;100666.53;1056121;28;20822;-82
2022/06/09 01:24:40;;;;;;;19.85;14.43;;;;;;;13.12;100.00;100671.16;1056549;28;20726;-81
2022/06/09 01:25:23;;;;;;;21.25;13.65;;;;;;;13.10;100.00;100667.91;1062297;27;20300;-82
2022/06/09 01:26:03;;;;;;;23.50;15.95;;;;;;;13.08;100.00;100670.00;1062169;27;20054;-82
2022/06/09 01:26:37;;;;;;;25.35;14.77;;;;;;;13.04;100.00;100674.22;1063790;27;20296;-82
2022/06/09 01:27:33;;;;;;;30.25;15.48;;;;;;;13.09;100.00;100666.28;1060564;27;20046;-82
2022/06/09 01:28:10;;;;;;;20.88;15.27;;;;;;;13.07;100.00;100665.72;1060855;27;20295;-81
2022/06/09 01:29:10;;;;;;;28.42;16.38;;;;;;;13.11;100.00;100669.53;1060358;27;21060;-81
2022/06/09 01:29:49;;;;;;;30.42;14.57;;;;;;;13.07;100.00;100670.25;1050734;28;20298;-81
2022/06/09 01:30:31;;;;;;;23.30;13.82;;;;;;;13.09;100.00;100668.16;1053498;28;20639;-81
2022/06/09 01:31:25;;;;;;;28.58;15.82;;;;;;;13.00;100.00;100667.72;1052497;28;20302;-81
2022/06/09 01:32:08;;;;;;;25.23;15.07;;;;;;;13.10;100.00;100673.25;1052083;28;20294;-81
2022/06/09 01:32:52;;;;;;;27.25;14.13;;;;;;;13.12;100.00;100668.47;1059223;27;20655;-81
2022/06/09 01:33:34;;;;;;;26.83;14.85;;;;;;;13.15;100.00;100662.69;1056640;28;20884;-81
2022/06/09 01:34:12;;;;;;;26.42;15.65;;;;;;;13.11;100.00;100666.84;1056323;28;20301;-80
2022/06/09 01:35:09;;;;;;;20.85;15.32;;;;;;;13.04;100.00;100674.22;1055739;28;20641;-81
2022/06/09 01:35:51;;;;;;;19.73;13.15;;;;;;;12.97;100.00;100668.19;1056952;27;20297;-81
2022/06/09 01:36:28;;;;;;;22.60;13.88;;;;;;;12.98;100.00;100669.81;1059880;27;20293;-81
2022/06/09 01:37:07;;;;;;;24.00;15.75;;;;;;;13.02;100.00;100676.31;1052722;28;20364;-81
2022/06/09 01:37:42;;;;;;;19.15;14.55;;;;;;;12.98;100.00;100675.16;1052019;28;20286;-81
2022/06/09 01:38:14;;;;;;;22.17;14.85;;;;;;;13.02;100.00;100670.97;1058404;27;20658;-81
2022/06/09 01:38:52;;;;;;;22.77;15.30;;;;;;;13.06;100.00;100677.47;1060846;27;20670;-81
2022/06/09 01:39:44;;;;;;;20.77;14.35;;;;;;;12.97;100.00;100674.34;1060806;27;20659;-81
2022/06/09 01:40:17;;;;;;;27.80;14.70;;;;;;;13.03;100.00;100677.94;1056500;28;20619;-81
2022/06/09 01:40:49;;;;;;;25.38;15.35;;;;;;;13.04;100.00;100673.41;1052854;28;20306;-81
2022/06/09 01:41:22;;;;;;;27.23;15.93;;;;;;;12.93;100.00;100675.88;1052299;28;20301;-81
2022/06/09 01:41:54;;;;;;;22.70;14.55;;;;;;;12.98;100.00;100669.81;1057398;27;20774;-81
2022/06/09 01:42:35;;;;;;;19.52;14.70;;;;;;;13.00;100.00;100673.88;1052421;28;20687;-81
2022/06/09 01:43:07;;;;;;;;;;;;;;;13.02;100.00;100675.50;1052620;28;20302;-81
2022/06/09 01:43:40;;;;;;;28.38;13.88;;;;;;;12.97;100.00;100674.34;1048063;28;19921;-81
2022/06/09 01:44:12;;;;;;;23.05;14.63;;;;;;;12.98;100.00;100678.66;1046510;28;20330;-81
2022/06/09 01:44:43;;;;;;;29.63;14.40;;;;;;;13.00;100.00;100678.41;1046121;28;20291;-81
2022/06/09 01:45:15;;;;;;;26.55;15.02;;;;;;;12.95;100.00;100678.31;1044805;28;20307;-81
2022/06/09 01:46:06;;;;;;;22.90;14.82;;;;;;;12.97;100.00;100685.03;1048440;28;20310;-82
2022/06/09 01:46:38;;;;;;;22.75;14.80;;;;;;;13.02;100.00;100687.00;1051203;28;20868;-82
2022/06/09 01:47:10;;;;;;;23.38;14.65;;;;;;;13.04;100.00;100678.75;1052793;28;20036;-82
2022/06/09 01:48:03;;;;;;;22.77;15.23;;;;;;;13.10;100.00;100681.28;1049660;28;20684;-82
2022/06/09 01:48:35;;;;;;;22.13;14.32;;;;;;;12.99;100.00;100680.25;1050340;28;20312;-82
2022/06/09 01:49:14;;;;;;;30.63;14.02;;;;;;;12.84;100.00;100684.47;1047574;28;20291;-82
2022/06/09 01:49:47;;;;;;;25.92;14.73;;;;;;;12.90;100.00;100683.56;1048090;28;20305;-82
2022/06/09 01:50:31;;;;;;;28.63;15.25;;;;;;;12.92;100.00;100681.44;1053541;28;20300;-81
2022/06/09 01:51:11;;;;;;;25.27;15.15;;;;;;;12.87;100.00;100684.81;1057139;27;20681;-82
2022/06/09 01:51:44;;;;;;;23.70;14.95;;;;;;;12.89;100.00;100687.28;1052363;28;20302;-82
2022/06/09 01:52:16;;;;;;;26.50;14.77;;;;;;;12.88;100.00;100680.31;1051631;28;20056;-82
2022/06/09 01:52:50;;;;;;;26.70;15.27;;;;;;;12.91;100.00;100685.19;1055772;28;20305;-81
2022/06/09 01:53:31;;;;;;;26.75;14.60;;;;;;;12.82;100.00;100686.56;1053109;28;20294;-82
2022/06/09 01:54:07;;;;;;;22.75;14.43;;;;;;;12.86;100.00;100682.38;1048021;28;20305;-81
2022/06/09 01:54:41;;;;;;;31.35;13.55;;;;;;;12.88;100.00;100680.31;1047034;28;20448;-81
2022/06/09 01:55:16;;;;;;;21.20;15.13;;;;;;;12.91;100.00;100690.53;1048191;28;20295;-81
2022/06/09 01:55:56;;;;;;;29.13;15.50;;;;;;;12.89;100.00;100682.75;1047665;28;20283;-81
2022/06/09 01:56:41;;;;;;;28.77;15.20;;;;;;;12.90;100.00;100691.56;1047627;28;20286;-81
2022/06/09 01:57:28;;;;;;;18.90;13.82;;;;;;;12.87;100.00;100689.34;1052082;28;20290;-81
2022/06/09 01:58:01;;;;;;;23.17;14.07;;;;;;;12.92;100.00;100682.25;1052790;28;20372;-81
2022/06/09 01:58:44;;;;;;;24.33;15.30;;;;;;;12.91;100.00;100687.84;1056631;28;20297;-82
2022/06/09 01:59:28;;;;;;;18.70;13.35;;;;;;;12.86;100.00;100685.03;1056511;28;20285;-82
2022/06/09 02:00:06;;;;;;;30.95;14.73;;;;;;;12.74;100.00;100689.59;1053041;28;20297;-81
2022/06/09 02:00:42;;;;;;;24.30;14.10;;;;;;;12.67;100.00;100689.72;1052949;28;20302;-82
2022/06/09 02:01:15;;;;;;;28.27;15.05;;;;;;;12.82;100.00;100695.41;1051389;28;20374;-81
2022/06/09 02:02:01;;;;;;;23.73;14.43;;;;;;;12.85;100.00;100686.09;1048277;28;20869;-81
2022/06/09 02:02:37;;;;;;;24.58;14.05;;;;;;;12.89;100.00;100689.94;1052093;28;20289;-81
2022/06/09 02:03:20;;;;;;;20.00;13.15;;;;;;;12.81;100.00;100690.28;1054413;28;20312;-81
2022/06/09 02:03:54;;;;;;;20.63;13.40;;;;;;;12.76;100.00;100687.50;1052157;28;20377;-82
2022/06/09 02:04:33;;;;;;;16.10;12.88;;;;;;;12.75;100.00;100693.91;1055783;27;20332;-81
2022/06/09 02:05:12;;;;;;;18.88;13.65;;;;;;;12.72;100.00;100692.50;1059732;27;20300;-81
2022/06/09 02:05:47;;;;;;;24.17;13.07;;;;;;;12.69;100.00;100696.47;1063479;27;20312;-81
2022/06/09 02:06:20;;;;;;;22.70;12.98;;;;;;;12.74;100.00;100689.59;1060582;27;20284;-81
2022/06/09 02:06:52;;;;;;;20.65;13.77;;;;;;;12.76;100.00;100687.50;1062473;27;20299;-81
2022/06/09 02:07:24;;;;;;;23.75;13.38;;;;;;;12.78;100.00;100694.25;1060386;27;20291;-81
2022/06/09 02:07:58;;;;;;;28.20;14.50;;;;;;;12.58;100.00;100694.59;1051875;28;20829;-80
2022/06/09 02:08:30;;;;;;;30.67;14.30;;;;;;;12.63;100.00;100693.91;1048770;28;20298;-80
2022/06/09 02:09:03;;;;;;;19.40;13.15;;;;;;;12.65;100.00;100703.31;1049191;28;20316;-80
2022/06/09 02:09:37;;;;;;;25.73;15.23;;;;;;;12.74;100.00;100692.28;1044738;28;20303;-81
2022/06/09 02:10:16;;;;;;;22.33;13.98;;;;;;;12.68;100.00;100697.50;1047683;28;20814;-81
2022/06/09 02:10:53;;;;;;;22.70;14.02;;;;;;;12.54;100.00;100701.44;1051620;28;20300;-81
2022/06/09 02:11:27;;;;;;;26.15;14.00;;;;;;;12.62;100.00;100711.00;1047728;28;20299;-80
2022/06/09 02:12:04;;;;;;;22.63;13.43;;;;;;;12.64;100.00;100701.69;1049552;28;20303;-80
2022/06/09 02:12:36;;;;;;;19.38;13.70;;;;;;;12.64;100.00;100704.38;1049037;28;20295;-80
2022/06/09 02:13:30;;;;;;;22.00;13.30;;;;;;;12.68;100.00;100708.19;1051291;28;20305;-80
2022/06/09 02:14:02;;;;;;;29.35;12.90;;;;;;;12.68;100.00;100708.19;1056510;28;20290;-80
2022/06/09 02:14:34;;;;;;;28.17;14.85;;;;;;;12.61;100.00;100709.38;1058839;27;20296;-80
2022/06/09 02:15:08;;;;;;;24.73;15.02;;;;;;;12.65;100.00;100708.66;1059728;27;20297;-81
2022/06/09 02:15:42;;;;;;;22.25;13.70;;;;;;;12.62;100.00;100709.13;1060831;27;20299;-80
2022/06/09 02:16:18;;;;;;;19.38;12.45;;;;;;;12.67;100.00;100711.91;1057589;27;20297;-80
2022/06/09 02:16:50;;;;;;;26.65;14.20;;;;;;;12.60;100.00;100713.91;1057712;28;20299;-80
2022/06/09 02:17:22;;;;;;;23.08;13.10;;;;;;;12.72;100.00;100707.72;1055966;28;20289;-80
2022/06/09 02:17:56;;;;;;;32.38;15.25;;;;;;;12.69;100.00;100715.19;1057674;28;20935;-80
2022/06/09 02:18:30;;;;;;;24.77;14.43;;;;;;;12.68;100.00;100712.72;1058037;27;20749;-80
2022/06/09 02:19:03;;;;;;;22.48;13.73;;;;;;;12.68;100.00;100713.53;1060766;27;20289;-80
2022/06/09 02:19:36;;;;;;;24.30;13.30;;;;;;;12.72;100.00;100716.56;1055368;28;20301;-81
2022/06/09 02:20:09;;;;;;;16.95;13.05;;;;;;;12.58;100.00;100713.28;1049141;28;20827;-81
2022/06/09 02:20:44;;;;;;;20.42;13.70;;;;;;;12.60;100.00;100713.91;1053317;28;20309;-81
2022/06/09 02:21:30;;;;;;;20.58;12.48;;;;;;;12.67;100.00;100716.47;1053726;28;20849;-81
2022/06/09 02:22:06;;;;;;;24.73;13.90;;;;;;;12.53;100.00;100715.03;1053822;28;20302;-81
2022/06/09 02:22:38;;;;;;;27.92;14.20;;;;;;;12.55;100.00;100719.09;1047798;28;20298;-80
2022/06/09 02:23:11;;;;;;;22.70;13.75;;;;;;;12.54;100.00;100714.00;1046834;28;20290;-80
2022/06/09 02:23:43;;;;;;;27.45;13.55;;;;;;;12.51;100.00;100717.94;1044875;28;20304;-80
2022/06/09 02:24:15;;;;;;;28.73;14.93;;;;;;;12.55;100.00;100716.44;1049646;28;20290;-80
2022/06/09 02:24:47;;;;;;;24.40;13.45;;;;;;;12.58;100.00;100713.28;1050933;28;20299;-80
2022/06/09 02:25:18;;;;;;;25.23;13.68;;;;;;;12.56;100.00;100720.72;1057332;27;20789;-80
2022/06/09 02:25:52;;;;;;;19.88;13.20;;;;;;;12.48;100.00;100714.94;1056011;28;20338;-81
2022/06/09 02:26:25;;;;;;;24.70;12.32;;;;;;;12.41;100.00;100728.41;1053874;28;20328;-80
2022/06/09 02:26:56;;;;;;;19.33;12.68;;;;;;;12.47;100.00;100719.47;1053835;28;20385;-80
2022/06/09 02:27:28;;;;;;;25.55;14.55;;;;;;;12.52;100.00;100718.75;1053296;27;20376;-81
2022/06/09 02:28:00;;;;;;;23.38;13.57;;;;;;;12.45;100.00;100718.88;1056840;27;20701;-80
2022/06/09 02:28:31;;;;;;;25.38;14.95;;;;;;;12.46;100.00;100725.84;1056498;28;20289;-80
2022/06/09 02:29:03;;;;;;;27.05;13.88;;;;;;;12.47;100.00;100724.00;1056883;28;20297;-80
2022/06/09 02:29:35;;;;;;;19.67;13.55;;;;;;;12.43;100.00;100712.97;1056599;28;20821;-80
2022/06/09 02:30:07;;;;;;;19.20;13.85;;;;;;;12.44;100.00;100727.94;1059607;27;20289;-80
2022/06/09 02:30:59;;;;;;;26.30;13.88;;;;;;;12.50;100.00;100721.66;1060073;27;20391;-80
2022/06/09 02:31:30;;;;;;;33.25;14.70;;;;;;;12.50;100.00;100724.34;1059685;27;20285;-80
2022/06/09 02:32:03;;;;;;;21.90;13.95;;;;;;;12.52;100.00;100724.09;1055941;28;20320;-80
2022/06/09 02:32:34;;;;;;;21.33;13.63;;;;;;;12.60;100.00;100719.25;1052090;28;20332;-80
2022/06/09 02:33:07;;;;;;;32.30;14.07;;;;;;;12.49;100.00;100725.38;1048220;28;20307;-81
2022/06/09 02:33:39;;;;;;;24.55;14.18;;;;;;;12.49;100.00;100720.03;1048551;28;20334;-80
2022/06/09 02:34:13;;;;;;;24.88;14.60;;;;;;;12.48;100.00;100726.44;1050077;28;20298;-80
2022/06/09 02:34:44;;;;;;;25.95;14.73;;;;;;;12.50;100.00;100720.84;1049193;28;20302;-80
2022/06/09 02:35:16;;;;;;;22.90;12.63;;;;;;;12.51;100.00;100723.28;1052333;28;20313;-80
2022/06/09 02:35:49;;;;;;;26.67;14.05;;;;;;;12.51;100.00;100723.28;1052835;28;20818;-80
2022/06/09 02:36:21;;;;;;;24.98;14.32;;;;;;;12.55;100.00;100723.63;1052652;28;20392;-80
2022/06/09 02:36:53;;;;;;;29.73;15.63;;;;;;;12.52;100.00;100724.91;1052337;28;20908;-80
2022/06/09 02:37:24;;;;;;;23.52;14.57;;;;;;;12.53;100.00;100731.06;1052201;28;20709;-81
2022/06/09 02:37:56;;;;;;;23.38;14.60;;;;;;;12.44;100.00;100732.47;1049942;28;20294;-80
2022/06/09 02:38:27;;;;;;;25.48;13.80;;;;;;;12.38;100.00;100726.19;1048435;28;20302;-81
2022/06/09 02:38:59;;;;;;;25.45;14.05;;;;;;;12.38;100.00;100729.69;1042194;28;20296;-80
2022/06/09 02:39:31;;;;;;;26.98;14.52;;;;;;;12.44;100.00;100727.94;1044080;28;20294;-80
2022/06/09 02:40:03;;;;;;;25.45;14.07;;;;;;;12.44;100.00;100727.13;1044655;28;20303;-81
2022/06/09 02:40:34;;;;;;;29.20;15.45;;;;;;;12.44;100.00;100725.28;1048872;28;20443;-81
2022/06/09 02:41:06;;;;;;;29.25;15.60;;;;;;;12.45;100.00;100729.56;1056170;28;20289;-81
2022/06/09 02:41:38;;;;;;;30.52;13.50;;;;;;;12.36;100.00;100720.28;1055249;28;20365;-81